KMY030 SKBG-SKSM
Flight info
| Callsign | KMY030 |
|---|---|
| Flight time | 1h 23m |
| Altitude | 16000 |
| Route | UBMUN1A UBMUN DCT MUPIR UW10 DIBAM UW9 EDVAR EDVAR1A |
| Aircraft | PA34/L-SDFGRY/S |
Departure
| Time | 2026-04-19 12:10 |
|---|---|
| Airport | Palonegro Airport (SKBG) |
Arrival
| Time | 2026-04-19 13:34 |
|---|---|
| Airport | Simón Bolívar International Airport (SKSM) |
| Time | Latitude | Longitude | Altitude | Speed | Heading |
|---|---|---|---|---|---|
| 2026-04-19 11:54 | 7.12694 | -73.18098 | 3905 ft | 0 kts | 185° |
| 2026-04-19 12:02 | 7.12686 | -73.18099 | 3905 ft | 5 kts | 185° |
| 2026-04-19 12:02 | 7.12649 | -73.18040 | 3905 ft | 18 kts | 25° |
| 2026-04-19 12:02 | 7.12756 | -73.18125 | 3905 ft | 22 kts | 316° |
| 2026-04-19 12:02 | 7.12769 | -73.18215 | 3905 ft | 5 kts | 245° |
| 2026-04-19 12:03 | 7.12765 | -73.18223 | 3905 ft | 0 kts | 246° |
| 2026-04-19 12:04 | 7.12760 | -73.18234 | 3905 ft | 8 kts | 246° |
| 2026-04-19 12:04 | 7.12771 | -73.18318 | 3905 ft | 16 kts | 289° |
| 2026-04-19 12:04 | 7.12747 | -73.18374 | 3905 ft | 3 kts | 247° |
| 2026-04-19 12:05 | 7.12746 | -73.18377 | 3905 ft | 0 kts | 247° |
| 2026-04-19 12:05 | 7.12742 | -73.18400 | 3905 ft | 11 kts | 264° |
| 2026-04-19 12:06 | 7.12693 | -73.18458 | 3905 ft | 9 kts | 146° |
| 2026-04-19 12:06 | 7.12682 | -73.18452 | 3905 ft | 0 kts | 169° |
| 2026-04-19 12:06 | 7.12671 | -73.18450 | 3905 ft | 8 kts | 169° |
| 2026-04-19 12:06 | 7.12532 | -73.18446 | 3905 ft | 31 kts | 191° |
| 2026-04-19 12:07 | 7.12404 | -73.18386 | 3905 ft | 14 kts | 185° |
| 2026-04-19 12:07 | 7.12349 | -73.18385 | 3905 ft | 2 kts | 142° |
| 2026-04-19 12:07 | 7.12348 | -73.18384 | 3905 ft | 0 kts | 143° |
| 2026-04-19 12:08 | 7.12346 | -73.18382 | 3905 ft | 3 kts | 143° |
| 2026-04-19 12:08 | 7.12249 | -73.18322 | 3905 ft | 28 kts | 155° |
| 2026-04-19 12:08 | 7.12062 | -73.18338 | 3905 ft | 21 kts | 131° |
| 2026-04-19 12:08 | 7.12068 | -73.18298 | 3905 ft | 4 kts | 13° |
| 2026-04-19 12:09 | 7.12073 | -73.18296 | 3905 ft | 4 kts | 5° |
| 2026-04-19 12:09 | 7.12089 | -73.18290 | 3905 ft | 7 kts | 25° |
| 2026-04-19 12:09 | 7.12137 | -73.18291 | 3905 ft | 2 kts | 335° |
| 2026-04-19 12:09 | 7.12225 | -73.18326 | 3905 ft | 35 kts | 322° |
| 2026-04-19 12:10 | 7.12561 | -73.18425 | 3905 ft | 66 kts | 322° |
| 2026-04-19 12:10 | 7.13028 | -73.18766 | 4064 ft | 90 kts | 324° |
| 2026-04-19 12:10 | 7.13552 | -73.19149 | 4372 ft | 97 kts | 324° |
| 2026-04-19 12:10 | 7.14083 | -73.19536 | 4810 ft | 90 kts | 324° |
| 2026-04-19 12:11 | 7.14624 | -73.19928 | 5039 ft | 110 kts | 326° |
| 2026-04-19 12:11 | 7.15442 | -73.20160 | 5173 ft | 133 kts | 354° |
| 2026-04-19 12:11 | 7.16430 | -73.20337 | 5179 ft | 159 kts | 346° |
| 2026-04-19 12:11 | 7.17555 | -73.20698 | 5183 ft | 175 kts | 340° |
| 2026-04-19 12:12 | 7.18723 | -73.21161 | 5187 ft | 185 kts | 338° |
| 2026-04-19 12:12 | 7.19944 | -73.21683 | 5129 ft | 194 kts | 336° |
| 2026-04-19 12:12 | 7.21184 | -73.22228 | 5148 ft | 195 kts | 336° |
| 2026-04-19 12:12 | 7.22383 | -73.22757 | 5154 ft | 197 kts | 336° |
| 2026-04-19 12:13 | 7.23649 | -73.23293 | 5160 ft | 197 kts | 338° |
| 2026-04-19 12:13 | 7.24892 | -73.23805 | 5373 ft | 188 kts | 338° |
| 2026-04-19 12:13 | 7.26089 | -73.24291 | 5603 ft | 182 kts | 338° |
| 2026-04-19 12:13 | 7.27246 | -73.24758 | 5843 ft | 178 kts | 338° |
| 2026-04-19 12:14 | 7.28389 | -73.25218 | 6087 ft | 175 kts | 338° |
| 2026-04-19 12:14 | 7.29532 | -73.25677 | 6337 ft | 173 kts | 338° |
| 2026-04-19 12:14 | 7.30621 | -73.26115 | 6577 ft | 172 kts | 338° |
| 2026-04-19 12:14 | 7.31727 | -73.26558 | 6825 ft | 171 kts | 337° |
| 2026-04-19 12:15 | 7.32834 | -73.26992 | 7081 ft | 169 kts | 332° |
| 2026-04-19 12:15 | 7.33929 | -73.27433 | 7338 ft | 167 kts | 332° |
| 2026-04-19 12:15 | 7.34999 | -73.27866 | 7583 ft | 166 kts | 332° |
| 2026-04-19 12:15 | 7.36064 | -73.28297 | 7830 ft | 165 kts | 332° |
| 2026-04-19 12:16 | 7.37135 | -73.28728 | 8080 ft | 165 kts | 332° |
| 2026-04-19 12:16 | 7.38190 | -73.29151 | 8326 ft | 165 kts | 332° |
| 2026-04-19 12:16 | 7.39265 | -73.29576 | 8577 ft | 165 kts | 332° |
| 2026-04-19 12:16 | 7.40337 | -73.29998 | 8827 ft | 165 kts | 332° |
| 2026-04-19 12:17 | 7.41411 | -73.30420 | 9077 ft | 166 kts | 332° |
| 2026-04-19 12:17 | 7.42493 | -73.30844 | 9329 ft | 166 kts | 332° |
| 2026-04-19 12:17 | 7.43562 | -73.31264 | 9577 ft | 167 kts | 332° |
| 2026-04-19 12:17 | 7.44652 | -73.31692 | 9829 ft | 167 kts | 332° |
| 2026-04-19 12:18 | 7.45720 | -73.32111 | 10076 ft | 168 kts | 332° |
| 2026-04-19 12:18 | 7.46817 | -73.32541 | 10328 ft | 168 kts | 332° |
| 2026-04-19 12:18 | 7.47917 | -73.32973 | 10580 ft | 169 kts | 332° |
| 2026-04-19 12:18 | 7.49011 | -73.33402 | 10830 ft | 169 kts | 332° |
| 2026-04-19 12:19 | 7.50094 | -73.33825 | 11071 ft | 164 kts | 332° |
| 2026-04-19 12:19 | 7.51132 | -73.34230 | 11305 ft | 159 kts | 332° |
| 2026-04-19 12:19 | 7.52165 | -73.34634 | 11547 ft | 155 kts | 332° |
| 2026-04-19 12:19 | 7.53163 | -73.35026 | 11788 ft | 152 kts | 331° |
| 2026-04-19 12:20 | 7.54146 | -73.35412 | 12031 ft | 150 kts | 331° |
| 2026-04-19 12:20 | 7.55109 | -73.35791 | 12274 ft | 149 kts | 331° |
| 2026-04-19 12:20 | 7.56074 | -73.36170 | 12520 ft | 148 kts | 331° |
| 2026-04-19 12:20 | 7.57021 | -73.36542 | 12764 ft | 147 kts | 331° |
| 2026-04-19 12:21 | 7.57968 | -73.36915 | 13011 ft | 146 kts | 331° |
| 2026-04-19 12:21 | 7.58914 | -73.37286 | 13258 ft | 146 kts | 331° |
| 2026-04-19 12:21 | 7.59860 | -73.37658 | 13506 ft | 146 kts | 331° |
| 2026-04-19 12:21 | 7.60807 | -73.38030 | 13756 ft | 146 kts | 331° |
| 2026-04-19 12:22 | 7.61753 | -73.38402 | 14005 ft | 146 kts | 331° |
| 2026-04-19 12:22 | 7.62690 | -73.38769 | 14252 ft | 146 kts | 331° |
| 2026-04-19 12:22 | 7.63636 | -73.39141 | 14502 ft | 146 kts | 330° |
| 2026-04-19 12:22 | 7.64582 | -73.39512 | 14751 ft | 146 kts | 330° |
| 2026-04-19 12:23 | 7.65537 | -73.39887 | 15003 ft | 146 kts | 330° |
| 2026-04-19 12:23 | 7.66486 | -73.40260 | 15252 ft | 147 kts | 330° |
| 2026-04-19 12:23 | 7.67435 | -73.40632 | 15502 ft | 147 kts | 330° |
| 2026-04-19 12:23 | 7.68389 | -73.41007 | 15749 ft | 148 kts | 330° |
| 2026-04-19 12:24 | 7.69364 | -73.41399 | 15918 ft | 153 kts | 330° |
| 2026-04-19 12:24 | 7.70371 | -73.41811 | 16004 ft | 163 kts | 330° |
| 2026-04-19 12:24 | 7.71462 | -73.42259 | 16018 ft | 173 kts | 331° |
| 2026-04-19 12:24 | 7.72604 | -73.42726 | 16015 ft | 181 kts | 331° |
| 2026-04-19 12:25 | 7.73792 | -73.43210 | 16010 ft | 187 kts | 332° |
| 2026-04-19 12:25 | 7.75008 | -73.43704 | 16006 ft | 191 kts | 332° |
| 2026-04-19 12:25 | 7.76249 | -73.44208 | 16004 ft | 193 kts | 332° |
| 2026-04-19 12:25 | 7.77510 | -73.44720 | 16003 ft | 194 kts | 332° |
| 2026-04-19 12:26 | 7.78757 | -73.45226 | 16002 ft | 195 kts | 332° |
| 2026-04-19 12:26 | 7.80019 | -73.45740 | 16001 ft | 196 kts | 332° |
| 2026-04-19 12:26 | 7.81278 | -73.46252 | 16001 ft | 196 kts | 332° |
| 2026-04-19 12:26 | 7.82554 | -73.46771 | 16000 ft | 197 kts | 332° |
| 2026-04-19 12:27 | 7.83821 | -73.47288 | 16000 ft | 197 kts | 332° |
| 2026-04-19 12:27 | 7.85079 | -73.47800 | 16000 ft | 196 kts | 332° |
| 2026-04-19 12:27 | 7.86343 | -73.48314 | 15999 ft | 195 kts | 332° |
| 2026-04-19 12:27 | 7.87611 | -73.48831 | 16000 ft | 195 kts | 332° |
| 2026-04-19 12:28 | 7.90125 | -73.49857 | 16000 ft | 195 kts | 332° |
| 2026-04-19 12:28 | 7.91380 | -73.50368 | 16000 ft | 195 kts | 332° |
| 2026-04-19 12:28 | 7.92648 | -73.50884 | 16000 ft | 195 kts | 332° |
| 2026-04-19 12:29 | 7.93895 | -73.51392 | 16000 ft | 195 kts | 332° |
| 2026-04-19 12:29 | 7.95171 | -73.51911 | 16000 ft | 195 kts | 332° |
| 2026-04-19 12:29 | 7.96444 | -73.52430 | 16000 ft | 195 kts | 332° |
| 2026-04-19 12:29 | 7.97686 | -73.52936 | 16000 ft | 195 kts | 332° |
| 2026-04-19 12:30 | 7.98936 | -73.53446 | 16000 ft | 195 kts | 332° |
| 2026-04-19 12:30 | 8.00188 | -73.53957 | 16000 ft | 195 kts | 332° |
| 2026-04-19 12:30 | 8.01452 | -73.54473 | 16000 ft | 195 kts | 332° |
| 2026-04-19 12:30 | 8.02721 | -73.54991 | 16000 ft | 195 kts | 332° |
| 2026-04-19 12:31 | 8.03969 | -73.55500 | 16000 ft | 195 kts | 332° |
| 2026-04-19 12:31 | 8.05225 | -73.56013 | 16000 ft | 195 kts | 332° |
| 2026-04-19 12:31 | 8.06486 | -73.56528 | 16000 ft | 195 kts | 332° |
| 2026-04-19 12:31 | 8.07747 | -73.57043 | 16000 ft | 195 kts | 332° |
| 2026-04-19 12:32 | 8.09003 | -73.57556 | 16000 ft | 195 kts | 332° |
| 2026-04-19 12:32 | 8.10274 | -73.58075 | 16000 ft | 195 kts | 332° |
| 2026-04-19 12:32 | 8.11527 | -73.58586 | 16000 ft | 195 kts | 332° |
| 2026-04-19 12:32 | 8.12797 | -73.59105 | 16000 ft | 195 kts | 332° |
| 2026-04-19 12:33 | 8.14050 | -73.59617 | 16000 ft | 195 kts | 332° |
| 2026-04-19 12:33 | 8.15312 | -73.60132 | 16000 ft | 195 kts | 332° |
| 2026-04-19 12:33 | 8.16573 | -73.60648 | 16000 ft | 195 kts | 332° |
| 2026-04-19 12:33 | 8.17846 | -73.61168 | 16000 ft | 195 kts | 332° |
| 2026-04-19 12:34 | 8.19092 | -73.61677 | 16000 ft | 195 kts | 332° |
| 2026-04-19 12:34 | 8.20368 | -73.62199 | 16000 ft | 195 kts | 332° |
| 2026-04-19 12:34 | 8.21604 | -73.62704 | 16000 ft | 195 kts | 332° |
| 2026-04-19 12:34 | 8.22859 | -73.63218 | 16000 ft | 195 kts | 332° |
| 2026-04-19 12:35 | 8.24120 | -73.63734 | 16000 ft | 195 kts | 332° |
| 2026-04-19 12:35 | 8.25389 | -73.64254 | 16000 ft | 195 kts | 332° |
| 2026-04-19 12:35 | 8.26635 | -73.64764 | 16000 ft | 195 kts | 332° |
| 2026-04-19 12:35 | 8.27923 | -73.65291 | 16000 ft | 195 kts | 332° |
| 2026-04-19 12:36 | 8.29163 | -73.65799 | 16000 ft | 195 kts | 332° |
| 2026-04-19 12:36 | 8.30430 | -73.66318 | 16000 ft | 195 kts | 332° |
| 2026-04-19 12:36 | 8.31686 | -73.66832 | 16000 ft | 195 kts | 332° |
| 2026-04-19 12:36 | 8.32939 | -73.67346 | 16000 ft | 195 kts | 332° |
| 2026-04-19 12:37 | 8.34205 | -73.67864 | 16000 ft | 195 kts | 332° |
| 2026-04-19 12:37 | 8.35474 | -73.68384 | 16000 ft | 195 kts | 332° |
| 2026-04-19 12:37 | 8.36728 | -73.68898 | 16000 ft | 195 kts | 332° |
| 2026-04-19 12:37 | 8.37975 | -73.69409 | 16000 ft | 195 kts | 332° |
| 2026-04-19 12:38 | 8.39240 | -73.69927 | 16000 ft | 195 kts | 332° |
| 2026-04-19 12:38 | 8.40503 | -73.70445 | 16000 ft | 195 kts | 332° |
| 2026-04-19 12:38 | 8.41755 | -73.70958 | 16000 ft | 195 kts | 332° |
| 2026-04-19 12:38 | 8.43018 | -73.71476 | 16000 ft | 195 kts | 332° |
| 2026-04-19 12:39 | 8.44287 | -73.71995 | 16000 ft | 195 kts | 332° |
| 2026-04-19 12:39 | 8.45536 | -73.72507 | 16000 ft | 195 kts | 332° |
| 2026-04-19 12:39 | 8.46795 | -73.73024 | 16000 ft | 195 kts | 332° |
| 2026-04-19 12:39 | 8.48066 | -73.73544 | 16000 ft | 195 kts | 332° |
| 2026-04-19 12:40 | 8.49319 | -73.74058 | 16000 ft | 195 kts | 332° |
| 2026-04-19 12:40 | 8.50575 | -73.74573 | 16000 ft | 195 kts | 332° |
| 2026-04-19 12:40 | 8.51792 | -73.75072 | 16000 ft | 195 kts | 332° |
| 2026-04-19 12:40 | 8.52801 | -73.75486 | 16000 ft | 195 kts | 332° |
| 2026-04-19 12:41 | 8.53907 | -73.75940 | 16000 ft | 195 kts | 332° |
| 2026-04-19 12:41 | 8.55171 | -73.76458 | 16000 ft | 195 kts | 332° |
| 2026-04-19 12:41 | 8.56426 | -73.76973 | 16000 ft | 195 kts | 332° |
| 2026-04-19 12:41 | 8.57684 | -73.77489 | 16000 ft | 195 kts | 332° |
| 2026-04-19 12:42 | 8.58940 | -73.78004 | 16000 ft | 195 kts | 332° |
| 2026-04-19 12:42 | 8.60193 | -73.78518 | 16000 ft | 195 kts | 332° |
| 2026-04-19 12:42 | 8.61454 | -73.79035 | 16000 ft | 195 kts | 332° |
| 2026-04-19 12:42 | 8.62720 | -73.79554 | 16000 ft | 195 kts | 332° |
| 2026-04-19 12:43 | 8.63982 | -73.80072 | 16000 ft | 195 kts | 332° |
| 2026-04-19 12:43 | 8.65248 | -73.80592 | 16000 ft | 195 kts | 332° |
| 2026-04-19 12:43 | 8.66497 | -73.81104 | 16000 ft | 195 kts | 332° |
| 2026-04-19 12:43 | 8.67759 | -73.81623 | 16000 ft | 195 kts | 332° |
| 2026-04-19 12:44 | 8.69020 | -73.82140 | 16000 ft | 195 kts | 332° |
| 2026-04-19 12:44 | 8.70285 | -73.82659 | 16000 ft | 195 kts | 332° |
| 2026-04-19 12:44 | 8.71545 | -73.83176 | 16000 ft | 195 kts | 332° |
| 2026-04-19 12:44 | 8.72816 | -73.83698 | 16000 ft | 195 kts | 332° |
| 2026-04-19 12:45 | 8.74074 | -73.84215 | 16000 ft | 195 kts | 332° |
| 2026-04-19 12:45 | 8.75318 | -73.84725 | 16000 ft | 196 kts | 332° |
| 2026-04-19 12:45 | 8.76586 | -73.85246 | 16000 ft | 196 kts | 332° |
| 2026-04-19 12:45 | 8.77841 | -73.85761 | 16000 ft | 196 kts | 332° |
| 2026-04-19 12:46 | 8.79096 | -73.86277 | 16000 ft | 196 kts | 332° |
| 2026-04-19 12:46 | 8.80360 | -73.86796 | 16000 ft | 196 kts | 332° |
| 2026-04-19 12:46 | 8.81617 | -73.87312 | 16000 ft | 196 kts | 332° |
| 2026-04-19 12:46 | 8.82888 | -73.87834 | 16000 ft | 196 kts | 332° |
| 2026-04-19 12:47 | 8.84145 | -73.88350 | 16000 ft | 196 kts | 332° |
| 2026-04-19 12:47 | 8.85405 | -73.88868 | 16000 ft | 196 kts | 332° |
| 2026-04-19 12:47 | 8.86657 | -73.89383 | 16000 ft | 196 kts | 332° |
| 2026-04-19 12:47 | 8.87918 | -73.89901 | 16000 ft | 196 kts | 332° |
| 2026-04-19 12:48 | 8.89178 | -73.90418 | 16000 ft | 196 kts | 332° |
| 2026-04-19 12:48 | 8.90437 | -73.90936 | 16000 ft | 196 kts | 332° |
| 2026-04-19 12:48 | 8.91697 | -73.91453 | 16000 ft | 196 kts | 332° |
| 2026-04-19 12:48 | 8.92964 | -73.91974 | 16000 ft | 196 kts | 332° |
| 2026-04-19 12:49 | 8.94230 | -73.92494 | 16000 ft | 196 kts | 332° |
| 2026-04-19 12:49 | 8.95487 | -73.93011 | 16000 ft | 196 kts | 332° |
| 2026-04-19 12:49 | 8.96737 | -73.93524 | 16000 ft | 196 kts | 332° |
| 2026-04-19 12:49 | 8.98006 | -73.94046 | 16000 ft | 196 kts | 332° |
| 2026-04-19 12:50 | 8.99266 | -73.94564 | 16000 ft | 196 kts | 332° |
| 2026-04-19 12:50 | 9.00522 | -73.95080 | 16000 ft | 196 kts | 332° |
| 2026-04-19 12:50 | 9.01788 | -73.95600 | 16000 ft | 196 kts | 332° |
| 2026-04-19 12:50 | 9.02627 | -73.95944 | 16000 ft | 196 kts | 332° |
| 2026-04-19 12:51 | 9.03930 | -73.96373 | 16001 ft | 199 kts | 341° |
| 2026-04-19 12:51 | 9.05306 | -73.96597 | 16002 ft | 201 kts | 346° |
| 2026-04-19 12:51 | 9.06694 | -73.96733 | 16001 ft | 202 kts | 349° |
| 2026-04-19 12:51 | 9.08100 | -73.96832 | 15998 ft | 199 kts | 349° |
| 2026-04-19 12:52 | 9.09469 | -73.96911 | 15997 ft | 197 kts | 350° |
| 2026-04-19 12:52 | 9.10824 | -73.96982 | 15997 ft | 195 kts | 350° |
| 2026-04-19 12:52 | 9.12198 | -73.97050 | 15998 ft | 194 kts | 350° |
| 2026-04-19 12:52 | 9.13526 | -73.97113 | 15999 ft | 193 kts | 350° |
| 2026-04-19 12:53 | 9.14853 | -73.97175 | 15999 ft | 192 kts | 350° |
| 2026-04-19 12:53 | 9.16190 | -73.97235 | 15999 ft | 192 kts | 350° |
| 2026-04-19 12:53 | 9.17528 | -73.97295 | 16000 ft | 192 kts | 351° |
| 2026-04-19 12:53 | 9.18706 | -73.97348 | 16000 ft | 191 kts | 351° |
| 2026-04-19 12:54 | 9.19551 | -73.97385 | 16000 ft | 191 kts | 351° |
| 2026-04-19 12:54 | 9.20884 | -73.97444 | 16000 ft | 191 kts | 351° |
| 2026-04-19 12:54 | 9.22209 | -73.97502 | 16000 ft | 191 kts | 351° |
| 2026-04-19 12:54 | 9.23547 | -73.97561 | 16000 ft | 191 kts | 351° |
| 2026-04-19 12:55 | 9.24864 | -73.97619 | 16000 ft | 191 kts | 351° |
| 2026-04-19 12:55 | 9.26200 | -73.97677 | 16000 ft | 191 kts | 351° |
| 2026-04-19 12:55 | 9.27528 | -73.97735 | 16000 ft | 191 kts | 351° |
| 2026-04-19 12:55 | 9.28857 | -73.97793 | 16000 ft | 191 kts | 351° |
| 2026-04-19 12:56 | 9.30189 | -73.97852 | 16000 ft | 191 kts | 351° |
| 2026-04-19 12:56 | 9.31511 | -73.97909 | 16000 ft | 191 kts | 351° |
| 2026-04-19 12:56 | 9.32846 | -73.97968 | 16000 ft | 191 kts | 351° |
| 2026-04-19 12:56 | 9.34173 | -73.98026 | 16000 ft | 191 kts | 351° |
| 2026-04-19 12:57 | 9.35514 | -73.98084 | 16000 ft | 191 kts | 351° |
| 2026-04-19 12:57 | 9.36815 | -73.98141 | 16000 ft | 191 kts | 351° |
| 2026-04-19 12:57 | 9.38151 | -73.98199 | 16000 ft | 191 kts | 351° |
| 2026-04-19 12:57 | 9.39475 | -73.98257 | 16000 ft | 191 kts | 351° |
| 2026-04-19 12:58 | 9.40796 | -73.98315 | 16000 ft | 191 kts | 351° |
| 2026-04-19 12:58 | 9.42142 | -73.98374 | 16000 ft | 191 kts | 351° |
| 2026-04-19 12:58 | 9.43465 | -73.98432 | 16000 ft | 191 kts | 351° |
| 2026-04-19 12:58 | 9.44795 | -73.98490 | 16000 ft | 191 kts | 351° |
| 2026-04-19 12:59 | 9.46127 | -73.98548 | 16000 ft | 191 kts | 351° |
| 2026-04-19 12:59 | 9.47443 | -73.98605 | 16000 ft | 191 kts | 351° |
| 2026-04-19 12:59 | 9.48777 | -73.98664 | 16000 ft | 191 kts | 351° |
| 2026-04-19 12:59 | 9.50101 | -73.98722 | 16000 ft | 191 kts | 351° |
| 2026-04-19 13:00 | 9.51421 | -73.98779 | 16000 ft | 191 kts | 351° |
| 2026-04-19 13:00 | 9.52739 | -73.98837 | 16000 ft | 191 kts | 351° |
| 2026-04-19 13:00 | 9.54076 | -73.98895 | 16000 ft | 191 kts | 351° |
| 2026-04-19 13:00 | 9.55408 | -73.98954 | 16000 ft | 191 kts | 351° |
| 2026-04-19 13:01 | 9.56730 | -73.99011 | 16000 ft | 191 kts | 351° |
| 2026-04-19 13:01 | 9.58051 | -73.99069 | 16000 ft | 191 kts | 351° |
| 2026-04-19 13:01 | 9.59390 | -73.99128 | 16000 ft | 191 kts | 351° |
| 2026-04-19 13:01 | 9.60711 | -73.99185 | 16000 ft | 191 kts | 351° |
| 2026-04-19 13:02 | 9.62041 | -73.99244 | 16000 ft | 191 kts | 351° |
| 2026-04-19 13:02 | 9.63391 | -73.99303 | 16000 ft | 191 kts | 351° |
| 2026-04-19 13:02 | 9.64693 | -73.99360 | 16000 ft | 191 kts | 351° |
| 2026-04-19 13:02 | 9.66040 | -73.99419 | 16000 ft | 191 kts | 351° |
| 2026-04-19 13:03 | 9.67361 | -73.99476 | 16000 ft | 191 kts | 351° |
| 2026-04-19 13:03 | 9.68680 | -73.99534 | 16000 ft | 191 kts | 351° |
| 2026-04-19 13:03 | 9.70007 | -73.99592 | 16000 ft | 191 kts | 351° |
| 2026-04-19 13:03 | 9.71344 | -73.99651 | 16000 ft | 191 kts | 351° |
| 2026-04-19 13:04 | 9.72664 | -73.99708 | 16000 ft | 191 kts | 351° |
| 2026-04-19 13:04 | 9.73992 | -73.99767 | 16000 ft | 191 kts | 351° |
| 2026-04-19 13:04 | 9.75319 | -73.99825 | 16000 ft | 191 kts | 351° |
| 2026-04-19 13:04 | 9.76657 | -73.99883 | 16000 ft | 191 kts | 351° |
| 2026-04-19 13:05 | 9.77977 | -73.99941 | 16000 ft | 191 kts | 351° |
| 2026-04-19 13:05 | 9.79311 | -73.99999 | 16000 ft | 191 kts | 351° |
| 2026-04-19 13:05 | 9.80637 | -74.00058 | 16000 ft | 191 kts | 351° |
| 2026-04-19 13:05 | 9.81967 | -74.00116 | 16000 ft | 191 kts | 351° |
| 2026-04-19 13:06 | 9.83299 | -74.00174 | 16000 ft | 191 kts | 351° |
| 2026-04-19 13:06 | 9.84628 | -74.00232 | 16000 ft | 191 kts | 351° |
| 2026-04-19 13:06 | 9.85958 | -74.00291 | 16000 ft | 191 kts | 351° |
| 2026-04-19 13:06 | 9.87286 | -74.00349 | 16000 ft | 191 kts | 351° |
| 2026-04-19 13:07 | 9.88610 | -74.00407 | 16000 ft | 191 kts | 351° |
| 2026-04-19 13:07 | 9.89937 | -74.00465 | 16000 ft | 191 kts | 351° |
| 2026-04-19 13:07 | 9.91262 | -74.00523 | 16000 ft | 191 kts | 351° |
| 2026-04-19 13:07 | 9.92595 | -74.00581 | 16000 ft | 191 kts | 351° |
| 2026-04-19 13:08 | 9.93919 | -74.00639 | 16000 ft | 191 kts | 351° |
| 2026-04-19 13:08 | 9.95248 | -74.00698 | 16000 ft | 191 kts | 351° |
| 2026-04-19 13:08 | 9.96585 | -74.00756 | 16000 ft | 191 kts | 351° |
| 2026-04-19 13:08 | 9.97910 | -74.00814 | 16000 ft | 191 kts | 351° |
| 2026-04-19 13:09 | 9.99232 | -74.00872 | 16000 ft | 191 kts | 351° |
| 2026-04-19 13:09 | 10.00569 | -74.00931 | 16000 ft | 191 kts | 351° |
| 2026-04-19 13:09 | 10.01896 | -74.00989 | 16000 ft | 191 kts | 351° |
| 2026-04-19 13:09 | 10.03242 | -74.01048 | 16000 ft | 191 kts | 351° |
| 2026-04-19 13:10 | 10.04554 | -74.01106 | 16000 ft | 191 kts | 351° |
| 2026-04-19 13:10 | 10.05905 | -74.01165 | 16000 ft | 191 kts | 351° |
| 2026-04-19 13:10 | 10.07208 | -74.01222 | 16000 ft | 191 kts | 351° |
| 2026-04-19 13:10 | 10.08538 | -74.01299 | 16000 ft | 190 kts | 347° |
| 2026-04-19 13:11 | 10.09840 | -74.01504 | 16001 ft | 188 kts | 342° |
| 2026-04-19 13:11 | 10.11107 | -74.01774 | 16000 ft | 187 kts | 340° |
| 2026-04-19 13:11 | 10.12376 | -74.02074 | 16000 ft | 187 kts | 340° |
| 2026-04-19 13:11 | 10.13633 | -74.02385 | 16000 ft | 187 kts | 339° |
| 2026-04-19 13:12 | 10.14921 | -74.02711 | 16000 ft | 187 kts | 339° |
| 2026-04-19 13:12 | 10.16161 | -74.03030 | 16000 ft | 187 kts | 339° |
| 2026-04-19 13:12 | 10.17413 | -74.03354 | 16000 ft | 186 kts | 339° |
| 2026-04-19 13:12 | 10.18669 | -74.03681 | 16000 ft | 186 kts | 339° |
| 2026-04-19 13:13 | 10.19941 | -74.04013 | 16000 ft | 186 kts | 339° |
| 2026-04-19 13:13 | 10.21174 | -74.04335 | 16000 ft | 186 kts | 339° |
| 2026-04-19 13:13 | 10.22440 | -74.04667 | 16000 ft | 186 kts | 339° |
| 2026-04-19 13:13 | 10.23690 | -74.04994 | 16000 ft | 186 kts | 339° |
| 2026-04-19 13:14 | 10.24944 | -74.05323 | 16000 ft | 186 kts | 339° |
| 2026-04-19 13:14 | 10.26197 | -74.05652 | 16000 ft | 186 kts | 339° |
| 2026-04-19 13:14 | 10.27454 | -74.05982 | 16000 ft | 186 kts | 339° |
| 2026-04-19 13:14 | 10.28714 | -74.06312 | 16000 ft | 186 kts | 339° |
| 2026-04-19 13:15 | 10.29982 | -74.06645 | 16000 ft | 186 kts | 339° |
| 2026-04-19 13:15 | 10.31223 | -74.06971 | 16000 ft | 186 kts | 339° |
| 2026-04-19 13:15 | 10.32492 | -74.07305 | 15957 ft | 189 kts | 339° |
| 2026-04-19 13:15 | 10.33768 | -74.07642 | 15855 ft | 193 kts | 339° |
| 2026-04-19 13:16 | 10.35083 | -74.07988 | 15767 ft | 195 kts | 339° |
| 2026-04-19 13:16 | 10.36391 | -74.08331 | 15671 ft | 197 kts | 339° |
| 2026-04-19 13:16 | 10.37727 | -74.08682 | 15539 ft | 199 kts | 339° |
| 2026-04-19 13:16 | 10.39077 | -74.09037 | 15406 ft | 200 kts | 339° |
| 2026-04-19 13:17 | 10.40427 | -74.09391 | 15270 ft | 200 kts | 339° |
| 2026-04-19 13:17 | 10.41769 | -74.09742 | 15115 ft | 201 kts | 339° |
| 2026-04-19 13:17 | 10.43131 | -74.10101 | 14891 ft | 202 kts | 339° |
| 2026-04-19 13:17 | 10.44492 | -74.10456 | 14649 ft | 198 kts | 339° |
| 2026-04-19 13:18 | 10.45816 | -74.10802 | 14399 ft | 197 kts | 339° |
| 2026-04-19 13:18 | 10.47142 | -74.11150 | 14146 ft | 195 kts | 339° |
| 2026-04-19 13:18 | 10.48438 | -74.11490 | 13898 ft | 194 kts | 339° |
| 2026-04-19 13:18 | 10.49753 | -74.11836 | 13645 ft | 193 kts | 339° |
| 2026-04-19 13:19 | 10.51036 | -74.12174 | 13398 ft | 192 kts | 339° |
| 2026-04-19 13:19 | 10.52332 | -74.12515 | 13146 ft | 191 kts | 339° |
| 2026-04-19 13:19 | 10.53623 | -74.12854 | 12896 ft | 191 kts | 339° |
| 2026-04-19 13:19 | 10.54913 | -74.13193 | 12644 ft | 190 kts | 339° |
| 2026-04-19 13:20 | 10.56191 | -74.13530 | 12394 ft | 189 kts | 339° |
| 2026-04-19 13:20 | 10.57482 | -74.13869 | 12141 ft | 189 kts | 339° |
| 2026-04-19 13:20 | 10.58730 | -74.14197 | 11895 ft | 188 kts | 339° |
| 2026-04-19 13:20 | 10.59994 | -74.14530 | 11645 ft | 188 kts | 339° |
| 2026-04-19 13:21 | 10.61257 | -74.14862 | 11395 ft | 187 kts | 339° |
| 2026-04-19 13:21 | 10.62512 | -74.15192 | 11146 ft | 187 kts | 339° |
| 2026-04-19 13:21 | 10.63779 | -74.15526 | 10893 ft | 186 kts | 339° |
| 2026-04-19 13:21 | 10.65027 | -74.15854 | 10644 ft | 186 kts | 339° |
| 2026-04-19 13:22 | 10.66272 | -74.16182 | 10394 ft | 185 kts | 339° |
| 2026-04-19 13:22 | 10.67519 | -74.16510 | 10144 ft | 184 kts | 339° |
| 2026-04-19 13:22 | 10.68758 | -74.16836 | 9894 ft | 184 kts | 339° |
| 2026-04-19 13:22 | 10.69995 | -74.17162 | 9644 ft | 183 kts | 339° |
| 2026-04-19 13:23 | 10.71229 | -74.17487 | 9394 ft | 183 kts | 339° |
| 2026-04-19 13:23 | 10.72457 | -74.17810 | 9145 ft | 182 kts | 339° |
| 2026-04-19 13:23 | 10.73683 | -74.18133 | 8895 ft | 182 kts | 339° |
| 2026-04-19 13:23 | 10.74894 | -74.18452 | 8677 ft | 176 kts | 339° |
| 2026-04-19 13:24 | 10.76056 | -74.18754 | 8424 ft | 169 kts | 339° |
| 2026-04-19 13:24 | 10.77180 | -74.19051 | 8171 ft | 166 kts | 339° |
| 2026-04-19 13:24 | 10.78255 | -74.19429 | 7920 ft | 161 kts | 331° |
| 2026-04-19 13:24 | 10.79266 | -74.19902 | 7669 ft | 159 kts | 327° |
| 2026-04-19 13:25 | 10.80238 | -74.20406 | 7420 ft | 157 kts | 326° |
| 2026-04-19 13:25 | 10.81203 | -74.20928 | 7169 ft | 156 kts | 326° |
| 2026-04-19 13:25 | 10.82156 | -74.21452 | 6918 ft | 155 kts | 325° |
| 2026-04-19 13:25 | 10.83096 | -74.21973 | 6669 ft | 154 kts | 325° |
| 2026-04-19 13:26 | 10.84043 | -74.22500 | 6418 ft | 154 kts | 326° |
| 2026-04-19 13:26 | 10.84969 | -74.23016 | 6170 ft | 153 kts | 327° |
| 2026-04-19 13:26 | 10.85896 | -74.23533 | 5920 ft | 152 kts | 327° |
| 2026-04-19 13:26 | 10.86828 | -74.24051 | 5668 ft | 151 kts | 328° |
| 2026-04-19 13:27 | 10.87785 | -74.24437 | 5443 ft | 144 kts | 346° |
| 2026-04-19 13:27 | 10.88737 | -74.24506 | 5200 ft | 134 kts | 355° |
| 2026-04-19 13:27 | 10.89657 | -74.24491 | 4942 ft | 131 kts | 359° |
| 2026-04-19 13:27 | 10.90558 | -74.24453 | 4688 ft | 129 kts | 0° |
| 2026-04-19 13:28 | 10.91436 | -74.24405 | 4440 ft | 128 kts | 1° |
| 2026-04-19 13:28 | 10.92353 | -74.24350 | 4182 ft | 128 kts | 2° |
| 2026-04-19 13:28 | 10.93235 | -74.24295 | 3934 ft | 129 kts | 3° |
| 2026-04-19 13:28 | 10.94124 | -74.24237 | 3685 ft | 129 kts | 3° |
| 2026-04-19 13:29 | 10.95027 | -74.24178 | 3434 ft | 130 kts | 4° |
| 2026-04-19 13:29 | 10.95937 | -74.24118 | 3183 ft | 131 kts | 4° |
| 2026-04-19 13:29 | 10.96849 | -74.24058 | 2935 ft | 131 kts | 4° |
| 2026-04-19 13:29 | 10.97758 | -74.23998 | 2686 ft | 131 kts | 4° |
| 2026-04-19 13:30 | 10.98679 | -74.23938 | 2434 ft | 131 kts | 4° |
| 2026-04-19 13:30 | 10.99568 | -74.23879 | 2199 ft | 130 kts | 4° |
| 2026-04-19 13:30 | 11.01300 | -74.23725 | 1971 ft | 117 kts | 7° |
| 2026-04-19 13:31 | 11.02081 | -74.23677 | 1976 ft | 110 kts | 2° |
| 2026-04-19 13:31 | 11.02831 | -74.23647 | 1968 ft | 107 kts | 2° |
| 2026-04-19 13:31 | 11.03602 | -74.23607 | 1841 ft | 115 kts | 3° |
| 2026-04-19 13:31 | 11.04413 | -74.23558 | 1701 ft | 119 kts | 4° |
| 2026-04-19 13:32 | 11.05236 | -74.23505 | 1553 ft | 120 kts | 4° |
| 2026-04-19 13:32 | 11.06084 | -74.23450 | 1396 ft | 121 kts | 4° |
| 2026-04-19 13:32 | 11.06927 | -74.23394 | 1239 ft | 121 kts | 4° |
| 2026-04-19 13:32 | 11.07487 | -74.23356 | 1135 ft | 121 kts | 4° |
| 2026-04-19 13:33 | 11.08610 | -74.23280 | 924 ft | 121 kts | 4° |
| 2026-04-19 13:33 | 11.09165 | -74.23243 | 819 ft | 121 kts | 4° |
| 2026-04-19 13:33 | 11.10004 | -74.23188 | 525 ft | 128 kts | 4° |
| 2026-04-19 13:33 | 11.11164 | -74.23093 | 25 ft | 123 kts | 6° |
| 2026-04-19 13:34 | 11.11634 | -74.23044 | 49 ft | 94 kts | 6° |
| 2026-04-19 13:34 | 11.12184 | -74.22986 | 25 ft | 64 kts | 6° |
| 2026-04-19 13:34 | 11.12594 | -74.23040 | 25 ft | 28 kts | 329° |
| 2026-04-19 13:34 | 11.12635 | -74.23047 | 25 ft | 3 kts | 177° |
| 2026-04-19 13:35 | 11.12632 | -74.23047 | 25 ft | 0 kts | 179° |